Eva, Alabama
Current Conditions -  °F | °C
As of 12:15 AM on Wednesday 22 Oct 2014 (Local Time) from KCMD Reporting Station
Clear Clear  
Wind Chill: 53°   Ceiling: Unl
Heat Index: 53°   Visibility: 10mi
Dew Point: 46°   Wind: 5mph
Humidity: 78%   Direction: 20°NNE
Pressure: 30.09"   Gusts: NA
Location:  34.33°N, 86.76°W
Report Text: KCMD 220515Z AUTO 02004KT 10SM CLR 12/08 A3009 RMK AO2 T01150078
Loading
Personal Weather Stations






























Interactive Weather Map
Tropical Storm Tracking
New forecast layout! Learn more

10-Day Weather Forecast

Advertisements
Track Severe Weather on mobile